sensor_id;sensor_type;location;lat;lon;timestamp;P1;P2;P0
73825;PMS5003;64145;55.060;73.168;2023-02-15T00:01:54;14.75;14.50;8.50
73825;PMS5003;64145;55.060;73.168;2023-02-15T00:04:20;17.33;16.33;9.00
73825;PMS5003;64145;55.060;73.168;2023-02-15T00:06:46;18.00;15.25;9.25
73825;PMS5003;64145;55.060;73.168;2023-02-15T00:09:21;19.25;17.00;11.25
73825;PMS5003;64145;55.060;73.168;2023-02-15T00:11:57;22.25;19.00;12.00
73825;PMS5003;64145;55.060;73.168;2023-02-15T00:14:24;19.25;18.00;12.00
73825;PMS5003;64145;55.060;73.168;2023-02-15T00:16:50;19.33;17.33;11.00
73825;PMS5003;64145;55.060;73.168;2023-02-15T00:19:17;21.25;18.75;12.00
73825;PMS5003;64145;55.060;73.168;2023-02-15T00:21:43;22.00;19.00;12.00
73825;PMS5003;64145;55.060;73.168;2023-02-15T00:24:09;22.33;20.00;12.00
73825;PMS5003;64145;55.060;73.168;2023-02-15T00:26:35;22.00;19.00;12.00
73825;PMS5003;64145;55.060;73.168;2023-02-15T00:29:02;23.50;19.50;12.00
73825;PMS5003;64145;55.060;73.168;2023-02-15T00:31:38;21.00;18.00;11.00
73825;PMS5003;64145;55.060;73.168;2023-02-15T00:34:04;23.00;19.00;12.00
73825;PMS5003;64145;55.060;73.168;2023-02-15T00:36:30;24.50;19.75;13.00
73825;PMS5003;64145;55.060;73.168;2023-02-15T00:38:56;27.00;22.00;14.00
73825;PMS5003;64145;55.060;73.168;2023-02-15T00:41:21;27.67;22.33;14.00
73825;PMS5003;64145;55.060;73.168;2023-02-15T00:43:47;27.00;22.00;14.00
73825;PMS5003;64145;55.060;73.168;2023-02-15T00:46:12;25.67;22.00;14.00
73825;PMS5003;64145;55.060;73.168;2023-02-15T00:48:42;26.25;21.00;13.00
73825;PMS5003;64145;55.060;73.168;2023-02-15T00:51:08;22.00;20.00;12.00
73825;PMS5003;64145;55.060;73.168;2023-02-15T00:53:33;22.00;20.00;12.00
73825;PMS5003;64145;55.060;73.168;2023-02-15T00:56:01;23.00;20.00;12.50
73825;PMS5003;64145;55.060;73.168;2023-02-15T00:58:37;23.25;20.00;12.25
73825;PMS5003;64145;55.060;73.168;2023-02-15T01:01:14;24.00;20.00;12.00
73825;PMS5003;64145;55.060;73.168;2023-02-15T01:03:50;23.25;20.00;12.00
73825;PMS5003;64145;55.060;73.168;2023-02-15T01:06:15;25.00;20.00;12.33
73825;PMS5003;64145;55.060;73.168;2023-02-15T01:08:41;23.00;20.00;12.00
73825;PMS5003;64145;55.060;73.168;2023-02-15T01:11:13;20.00;18.25;12.00
73825;PMS5003;64145;55.060;73.168;2023-02-15T01:13:40;17.00;16.00;10.00
73825;PMS5003;64145;55.060;73.168;2023-02-15T01:16:05;17.00;16.00;9.00
73825;PMS5003;64145;55.060;73.168;2023-02-15T01:18:41;15.75;14.00;7.75
73825;PMS5003;64145;55.060;73.168;2023-02-15T01:21:17;16.50;15.00;7.00
73825;PMS5003;64145;55.060;73.168;2023-02-15T01:23:49;16.75;15.25;7.75
73825;PMS5003;64145;55.060;73.168;2023-02-15T01:26:19;14.00;13.00;7.25
73825;PMS5003;64145;55.060;73.168;2023-02-15T01:28:45;14.00;13.00;8.00
73825;PMS5003;64145;55.060;73.168;2023-02-15T01:31:16;14.67;14.00;7.00
73825;PMS5003;64145;55.060;73.168;2023-02-15T01:33:42;18.50;17.00;9.00
73825;PMS5003;64145;55.060;73.168;2023-02-15T01:36:07;20.00;17.00;10.00
73825;PMS5003;64145;55.060;73.168;2023-02-15T01:38:34;17.00;16.67;10.00
73825;PMS5003;64145;55.060;73.168;2023-02-15T01:41:00;19.25;18.25;11.00
73825;PMS5003;64145;55.060;73.168;2023-02-15T01:43:55;20.25;18.00;11.00
73825;PMS5003;64145;55.060;73.168;2023-02-15T01:46:36;23.75;19.75;12.00
73825;PMS5003;64145;55.060;73.168;2023-02-15T01:49:14;28.00;21.25;14.00
73825;PMS5003;64145;55.060;73.168;2023-02-15T01:51:41;23.00;20.00;13.00
73825;PMS5003;64145;55.060;73.168;2023-02-15T01:54:12;23.75;20.25;12.00
73825;PMS5003;64145;55.060;73.168;2023-02-15T01:56:40;23.00;19.00;12.00
73825;PMS5003;64145;55.060;73.168;2023-02-15T01:59:08;22.00;18.00;12.00
73825;PMS5003;64145;55.060;73.168;2023-02-15T02:01:34;21.00;18.50;12.00
73825;PMS5003;64145;55.060;73.168;2023-02-15T02:07:04;25.00;21.50;13.00
73825;PMS5003;64145;55.060;73.168;2023-02-15T02:09:41;29.25;24.25;14.25
73825;PMS5003;64145;55.060;73.168;2023-02-15T02:12:17;30.00;25.00;15.00
73825;PMS5003;64145;55.060;73.168;2023-02-15T02:14:43;30.75;25.25;15.75
73825;PMS5003;64145;55.060;73.168;2023-02-15T02:17:16;32.50;26.00;15.00
73825;PMS5003;64145;55.060;73.168;2023-02-15T02:25:03;31.00;25.00;16.00
73825;PMS5003;64145;55.060;73.168;2023-02-15T02:48:11;30.00;23.00;15.00
73825;PMS5003;64145;55.060;73.168;2023-02-15T02:50:46;29.25;23.50;15.00
73825;PMS5003;64145;55.060;73.168;2023-02-15T02:53:12;30.00;25.00;15.00
73825;PMS5003;64145;55.060;73.168;2023-02-15T02:58:08;29.00;23.25;14.00
73825;PMS5003;64145;55.060;73.168;2023-02-15T03:00:46;27.00;23.00;14.00
73825;PMS5003;64145;55.060;73.168;2023-02-15T03:03:20;27.00;23.00;14.00
73825;PMS5003;64145;55.060;73.168;2023-02-15T03:05:46;27.00;22.00;14.00
73825;PMS5003;64145;55.060;73.168;2023-02-15T03:08:17;25.25;21.25;14.00
73825;PMS5003;64145;55.060;73.168;2023-02-15T03:10:52;26.75;21.25;14.00
73825;PMS5003;64145;55.060;73.168;2023-02-15T03:13:18;27.00;22.00;13.00
73825;PMS5003;64145;55.060;73.168;2023-02-15T03:15:54;23.00;21.00;13.00
73825;PMS5003;64145;55.060;73.168;2023-02-15T03:19:06;21.75;19.50;12.75
73825;PMS5003;64145;55.060;73.168;2023-02-15T03:21:35;22.00;19.00;12.00
73825;PMS5003;64145;55.060;73.168;2023-02-15T03:24:09;21.25;19.00;12.00
73825;PMS5003;64145;55.060;73.168;2023-02-15T03:26:42;23.75;20.00;13.50
73825;PMS5003;64145;55.060;73.168;2023-02-15T03:29:19;26.25;21.25;14.00
73825;PMS5003;64145;55.060;73.168;2023-02-15T03:31:46;28.00;22.00;14.00
73825;PMS5003;64145;55.060;73.168;2023-02-15T03:34:16;26.00;21.75;13.00
73825;PMS5003;64145;55.060;73.168;2023-02-15T03:39:38;28.00;22.25;14.00
73825;PMS5003;64145;55.060;73.168;2023-02-15T03:42:17;28.00;23.00;14.00
73825;PMS5003;64145;55.060;73.168;2023-02-15T03:47:23;30.00;24.25;15.00
73825;PMS5003;64145;55.060;73.168;2023-02-15T03:52:20;28.00;22.25;14.00
73825;PMS5003;64145;55.060;73.168;2023-02-15T03:54:56;28.25;21.50;14.00
73825;PMS5003;64145;55.060;73.168;2023-02-15T03:57:23;27.00;22.00;14.00
73825;PMS5003;64145;55.060;73.168;2023-02-15T04:03:05;29.00;24.00;16.00
73825;PMS5003;64145;55.060;73.168;2023-02-15T04:05:43;28.00;24.00;15.00
73825;PMS5003;64145;55.060;73.168;2023-02-15T04:08:14;25.75;21.75;14.00
73825;PMS5003;64145;55.060;73.168;2023-02-15T04:10:39;26.00;22.00;14.00
73825;PMS5003;64145;55.060;73.168;2023-02-15T04:13:20;26.50;21.75;14.00
73825;PMS5003;64145;55.060;73.168;2023-02-15T04:15:46;28.75;23.00;15.00
73825;PMS5003;64145;55.060;73.168;2023-02-15T04:21:14;28.50;21.00;13.50
73825;PMS5003;64145;55.060;73.168;2023-02-15T04:23:58;28.50;22.75;14.00
73825;PMS5003;64145;55.060;73.168;2023-02-15T04:26:42;29.25;23.00;14.00
73825;PMS5003;64145;55.060;73.168;2023-02-15T04:29:08;30.00;24.00;14.00
73825;PMS5003;64145;55.060;73.168;2023-02-15T04:31:38;29.00;23.50;14.00
73825;PMS5003;64145;55.060;73.168;2023-02-15T04:34:14;30.00;24.25;16.00
73825;PMS5003;64145;55.060;73.168;2023-02-15T04:36:39;31.00;25.33;16.00
73825;PMS5003;64145;55.060;73.168;2023-02-15T04:39:05;31.33;25.00;16.67
73825;PMS5003;64145;55.060;73.168;2023-02-15T04:41:31;31.00;24.00;15.00
73825;PMS5003;64145;55.060;73.168;2023-02-15T04:43:57;29.67;24.00;15.00
73825;PMS5003;64145;55.060;73.168;2023-02-15T04:46:23;30.67;24.00;15.00
73825;PMS5003;64145;55.060;73.168;2023-02-15T04:48:59;30.50;24.75;15.00
73825;PMS5003;64145;55.060;73.168;2023-02-15T04:51:24;32.67;26.33;15.00
73825;PMS5003;64145;55.060;73.168;2023-02-15T04:53:50;32.33;26.33;16.33
73825;PMS5003;64145;55.060;73.168;2023-02-15T04:56:22;33.00;26.50;17.00
73825;PMS5003;64145;55.060;73.168;2023-02-15T04:58:48;34.00;27.00;17.00
73825;PMS5003;64145;55.060;73.168;2023-02-15T05:01:14;35.00;27.00;18.00
73825;PMS5003;64145;55.060;73.168;2023-02-15T05:03:39;35.33;27.67;18.00
73825;PMS5003;64145;55.060;73.168;2023-02-15T05:06:16;35.50;27.75;18.00
73825;PMS5003;64145;55.060;73.168;2023-02-15T05:08:41;34.00;28.00;18.00
73825;PMS5003;64145;55.060;73.168;2023-02-15T05:11:07;33.00;27.00;17.33
73825;PMS5003;64145;55.060;73.168;2023-02-15T05:13:32;31.33;25.00;16.00
73825;PMS5003;64145;55.060;73.168;2023-02-15T05:15:58;32.00;26.33;15.67
73825;PMS5003;64145;55.060;73.168;2023-02-15T05:18:25;31.00;26.00;16.00
73825;PMS5003;64145;55.060;73.168;2023-02-15T05:20:50;32.00;26.00;15.00
73825;PMS5003;64145;55.060;73.168;2023-02-15T05:23:17;34.00;27.00;17.00
73825;PMS5003;64145;55.060;73.168;2023-02-15T05:25:46;31.00;26.00;16.00
73825;PMS5003;64145;55.060;73.168;2023-02-15T05:28:35;32.75;25.00;16.50
73825;PMS5003;64145;55.060;73.168;2023-02-15T05:31:06;36.25;28.25;17.00
73825;PMS5003;64145;55.060;73.168;2023-02-15T05:33:32;35.75;28.00;17.00
73825;PMS5003;64145;55.060;73.168;2023-02-15T05:35:58;37.50;29.50;17.50
73825;PMS5003;64145;55.060;73.168;2023-02-15T05:38:24;43.00;33.00;19.33
73825;PMS5003;64145;55.060;73.168;2023-02-15T05:40:54;40.25;31.00;19.50
73825;PMS5003;64145;55.060;73.168;2023-02-15T05:43:29;41.25;32.50;19.25
73825;PMS5003;64145;55.060;73.168;2023-02-15T05:46:05;39.00;30.00;18.00
73825;PMS5003;64145;55.060;73.168;2023-02-15T05:48:41;34.00;28.00;17.50
73825;PMS5003;64145;55.060;73.168;2023-02-15T05:51:11;30.67;25.00;15.67
73825;PMS5003;64145;55.060;73.168;2023-02-15T05:53:41;24.50;21.25;13.50
73825;PMS5003;64145;55.060;73.168;2023-02-15T05:56:07;23.00;20.00;12.00
73825;PMS5003;64145;55.060;73.168;2023-02-15T05:58:35;24.00;20.00;12.75
73825;PMS5003;64145;55.060;73.168;2023-02-15T06:01:07;26.00;21.00;14.00
73825;PMS5003;64145;55.060;73.168;2023-02-15T06:03:38;22.00;19.50;12.50
73825;PMS5003;64145;55.060;73.168;2023-02-15T06:06:10;29.25;22.75;14.00
73825;PMS5003;64145;55.060;73.168;2023-02-15T06:08:36;30.00;24.25;14.50
73825;PMS5003;64145;55.060;73.168;2023-02-15T06:11:02;32.00;25.00;15.00
73825;PMS5003;64145;55.060;73.168;2023-02-15T06:13:33;30.00;24.00;15.00
73825;PMS5003;64145;55.060;73.168;2023-02-15T06:15:59;28.50;23.00;14.00
73825;PMS5003;64145;55.060;73.168;2023-02-15T06:18:24;28.00;23.00;14.00
73825;PMS5003;64145;55.060;73.168;2023-02-15T06:20:50;27.00;23.33;14.00
73825;PMS5003;64145;55.060;73.168;2023-02-15T06:23:16;28.33;24.00;15.00
73825;PMS5003;64145;55.060;73.168;2023-02-15T06:25:52;30.50;25.75;15.00
73825;PMS5003;64145;55.060;73.168;2023-02-15T06:28:17;31.33;25.33;14.67
73825;PMS5003;64145;55.060;73.168;2023-02-15T06:30:43;29.00;24.00;14.00
73825;PMS5003;64145;55.060;73.168;2023-02-15T06:33:18;28.50;23.00;14.00
73825;PMS5003;64145;55.060;73.168;2023-02-15T06:35:44;28.00;23.00;14.00
73825;PMS5003;64145;55.060;73.168;2023-02-15T06:38:10;26.50;22.00;13.25
73825;PMS5003;64145;55.060;73.168;2023-02-15T06:40:35;29.67;23.00;15.00
73825;PMS5003;64145;55.060;73.168;2023-02-15T06:43:01;25.00;21.00;13.00
73825;PMS5003;64145;55.060;73.168;2023-02-15T06:45:32;26.50;22.50;13.00
73825;PMS5003;64145;55.060;73.168;2023-02-15T06:48:04;28.50;23.25;14.00
73825;PMS5003;64145;55.060;73.168;2023-02-15T06:50:43;27.50;23.00;15.00
73825;PMS5003;64145;55.060;73.168;2023-02-15T06:53:19;26.50;23.00;14.00
73825;PMS5003;64145;55.060;73.168;2023-02-15T06:55:44;29.00;24.67;14.00
73825;PMS5003;64145;55.060;73.168;2023-02-15T06:58:10;28.33;23.00;13.00
73825;PMS5003;64145;55.060;73.168;2023-02-15T07:00:35;29.00;23.00;14.00
73825;PMS5003;64145;55.060;73.168;2023-02-15T07:03:01;30.00;24.00;14.00
73825;PMS5003;64145;55.060;73.168;2023-02-15T07:05:27;29.00;23.00;15.00
73825;PMS5003;64145;55.060;73.168;2023-02-15T07:08:05;28.00;22.00;13.25
73825;PMS5003;64145;55.060;73.168;2023-02-15T07:10:44;29.50;22.50;14.00
73825;PMS5003;64145;55.060;73.168;2023-02-15T07:13:09;30.75;25.00;15.00
73825;PMS5003;64145;55.060;73.168;2023-02-15T07:15:39;29.25;23.00;14.25
73825;PMS5003;64145;55.060;73.168;2023-02-15T07:18:08;28.00;21.75;14.00
73825;PMS5003;64145;55.060;73.168;2023-02-15T07:20:34;29.00;23.00;14.00
73825;PMS5003;64145;55.060;73.168;2023-02-15T07:23:00;31.00;24.00;15.00
73825;PMS5003;64145;55.060;73.168;2023-02-15T07:25:36;30.50;24.25;15.00
73825;PMS5003;64145;55.060;73.168;2023-02-15T07:28:02;33.33;25.00;15.33
73825;PMS5003;64145;55.060;73.168;2023-02-15T07:30:29;32.50;25.00;16.00
73825;PMS5003;64145;55.060;73.168;2023-02-15T07:32:55;32.75;26.25;16.00
73825;PMS5003;64145;55.060;73.168;2023-02-15T07:35:47;33.50;26.75;16.50
73825;PMS5003;64145;55.060;73.168;2023-02-15T07:38:23;33.00;25.00;16.00
73825;PMS5003;64145;55.060;73.168;2023-02-15T07:40:49;31.00;25.00;15.00
73825;PMS5003;64145;55.060;73.168;2023-02-15T07:43:15;33.50;26.50;16.00
73825;PMS5003;64145;55.060;73.168;2023-02-15T07:45:41;33.00;26.00;16.33
73825;PMS5003;64145;55.060;73.168;2023-02-15T07:48:06;33.33;26.00;16.00
73825;PMS5003;64145;55.060;73.168;2023-02-15T07:50:37;33.00;25.75;16.00
73825;PMS5003;64145;55.060;73.168;2023-02-15T07:53:03;33.33;27.00;16.33
73825;PMS5003;64145;55.060;73.168;2023-02-15T07:55:39;33.50;27.00;16.50
73825;PMS5003;64145;55.060;73.168;2023-02-15T07:58:10;35.50;27.50;17.50
73825;PMS5003;64145;55.060;73.168;2023-02-15T08:00:35;35.00;27.33;17.00
73825;PMS5003;64145;55.060;73.168;2023-02-15T08:03:26;31.50;26.00;16.50
73825;PMS5003;64145;55.060;73.168;2023-02-15T08:05:57;33.00;26.00;16.50
73825;PMS5003;64145;55.060;73.168;2023-02-15T08:08:23;31.50;25.75;16.00
73825;PMS5003;64145;55.060;73.168;2023-02-15T08:10:58;32.50;25.00;14.50
73825;PMS5003;64145;55.060;73.168;2023-02-15T08:13:53;31.00;25.00;15.00
73825;PMS5003;64145;55.060;73.168;2023-02-15T08:16:23;30.25;24.75;15.00
73825;PMS5003;64145;55.060;73.168;2023-02-15T08:18:49;32.00;24.75;15.00
73825;PMS5003;64145;55.060;73.168;2023-02-15T08:21:15;31.00;25.50;14.50
73825;PMS5003;64145;55.060;73.168;2023-02-15T08:23:46;32.00;26.00;17.00
73825;PMS5003;64145;55.060;73.168;2023-02-15T08:26:22;30.00;24.00;15.00
73825;PMS5003;64145;55.060;73.168;2023-02-15T08:28:50;30.00;24.25;15.00
73825;PMS5003;64145;55.060;73.168;2023-02-15T08:31:30;29.75;23.00;15.00
73825;PMS5003;64145;55.060;73.168;2023-02-15T08:33:56;30.00;23.33;15.00
73825;PMS5003;64145;55.060;73.168;2023-02-15T08:36:23;29.00;24.00;15.00
73825;PMS5003;64145;55.060;73.168;2023-02-15T08:38:59;30.25;23.75;15.00
73825;PMS5003;64145;55.060;73.168;2023-02-15T08:41:26;29.00;23.50;15.00
73825;PMS5003;64145;55.060;73.168;2023-02-15T08:43:52;28.50;23.50;15.00
73825;PMS5003;64145;55.060;73.168;2023-02-15T08:46:19;28.00;22.00;13.00
73825;PMS5003;64145;55.060;73.168;2023-02-15T08:48:50;26.50;22.00;13.00
73825;PMS5003;64145;55.060;73.168;2023-02-15T08:51:25;27.00;21.50;13.00
73825;PMS5003;64145;55.060;73.168;2023-02-15T08:53:52;26.00;22.00;15.00
73825;PMS5003;64145;55.060;73.168;2023-02-15T08:56:28;25.50;21.50;14.00
73825;PMS5003;64145;55.060;73.168;2023-02-15T08:58:56;26.25;22.25;14.75
73825;PMS5003;64145;55.060;73.168;2023-02-15T09:01:23;27.67;22.00;14.00
73825;PMS5003;64145;55.060;73.168;2023-02-15T09:03:57;25.00;21.00;13.00
73825;PMS5003;64145;55.060;73.168;2023-02-15T09:06:26;22.75;19.25;13.00
73825;PMS5003;64145;55.060;73.168;2023-02-15T09:08:52;25.50;20.50;13.00
73825;PMS5003;64145;55.060;73.168;2023-02-15T09:11:19;22.00;20.00;11.75
73825;PMS5003;64145;55.060;73.168;2023-02-15T09:13:59;23.50;19.25;13.00
73825;PMS5003;64145;55.060;73.168;2023-02-15T09:16:26;23.00;19.75;12.50
73825;PMS5003;64145;55.060;73.168;2023-02-15T09:18:52;30.50;23.50;15.00
73825;PMS5003;64145;55.060;73.168;2023-02-15T09:21:25;29.75;24.00;16.00
73825;PMS5003;64145;55.060;73.168;2023-02-15T09:23:51;28.00;23.50;15.00
73825;PMS5003;64145;55.060;73.168;2023-02-15T09:26:18;33.25;26.00;15.75
73825;PMS5003;64145;55.060;73.168;2023-02-15T09:28:44;32.25;26.00;17.00
73825;PMS5003;64145;55.060;73.168;2023-02-15T09:31:12;28.50;24.00;15.00
73825;PMS5003;64145;55.060;73.168;2023-02-15T09:33:48;30.50;25.00;15.00
73825;PMS5003;64145;55.060;73.168;2023-02-15T09:38:45;30.00;24.00;15.00
73825;PMS5003;64145;55.060;73.168;2023-02-15T09:52:04;31.00;25.25;15.00
73825;PMS5003;64145;55.060;73.168;2023-02-15T09:54:36;31.50;26.00;16.25
73825;PMS5003;64145;55.060;73.168;2023-02-15T09:57:08;33.00;26.00;17.00
73825;PMS5003;64145;55.060;73.168;2023-02-15T09:59:52;31.00;24.00;15.00
73825;PMS5003;64145;55.060;73.168;2023-02-15T10:05:36;34.00;27.50;17.00
73825;PMS5003;64145;55.060;73.168;2023-02-15T10:08:14;34.00;27.50;16.00
73825;PMS5003;64145;55.060;73.168;2023-02-15T10:16:26;33.25;27.50;18.00
73825;PMS5003;64145;55.060;73.168;2023-02-15T10:22:10;31.00;26.00;16.00
73825;PMS5003;64145;55.060;73.168;2023-02-15T10:27:47;34.50;27.75;18.00
73825;PMS5003;64145;55.060;73.168;2023-02-15T10:30:27;32.00;26.50;17.00
73825;PMS5003;64145;55.060;73.168;2023-02-15T10:33:00;32.25;27.00;17.00
73825;PMS5003;64145;55.060;73.168;2023-02-15T10:49:07;30.00;24.00;15.00
73825;PMS5003;64145;55.060;73.168;2023-02-15T10:54:16;29.00;24.25;14.00
73825;PMS5003;64145;55.060;73.168;2023-02-15T11:01:58;29.25;24.00;15.00
73825;PMS5003;64145;55.060;73.168;2023-02-15T11:04:45;30.00;24.00;15.00
73825;PMS5003;64145;55.060;73.168;2023-02-15T11:07:19;28.50;23.00;14.00
73825;PMS5003;64145;55.060;73.168;2023-02-15T11:09:59;28.00;23.00;14.00
73825;PMS5003;64145;55.060;73.168;2023-02-15T11:12:27;29.25;23.00;15.75
73825;PMS5003;64145;55.060;73.168;2023-02-15T11:14:58;31.00;25.00;15.00
73825;PMS5003;64145;55.060;73.168;2023-02-15T11:17:32;31.00;24.50;14.00
73825;PMS5003;64145;55.060;73.168;2023-02-15T11:22:41;31.00;24.50;15.50
73825;PMS5003;64145;55.060;73.168;2023-02-15T11:25:18;31.00;25.00;16.00
73825;PMS5003;64145;55.060;73.168;2023-02-15T11:27:45;33.00;26.50;17.25
73825;PMS5003;64145;55.060;73.168;2023-02-15T11:30:24;34.00;27.75;17.25
73825;PMS5003;64145;55.060;73.168;2023-02-15T11:32:52;37.75;29.25;18.00
73825;PMS5003;64145;55.060;73.168;2023-02-15T11:35:41;41.00;31.00;20.00
73825;PMS5003;64145;55.060;73.168;2023-02-15T11:38:21;40.50;32.00;20.00
73825;PMS5003;64145;55.060;73.168;2023-02-15T11:40:59;36.00;28.50;17.75
73825;PMS5003;64145;55.060;73.168;2023-02-15T11:43:27;35.50;27.50;17.00
73825;PMS5003;64145;55.060;73.168;2023-02-15T11:45:59;32.25;25.00;15.00
73825;PMS5003;64145;55.060;73.168;2023-02-15T11:48:25;31.00;23.00;14.00
73825;PMS5003;64145;55.060;73.168;2023-02-15T11:50:51;46.00;36.25;21.50
73825;PMS5003;64145;55.060;73.168;2023-02-15T11:53:17;103.00;89.33;44.67
73825;PMS5003;64145;55.060;73.168;2023-02-15T11:55:44;108.00;94.00;47.50
73825;PMS5003;64145;55.060;73.168;2023-02-15T12:01:41;46.25;36.50;21.25
73825;PMS5003;64145;55.060;73.168;2023-02-15T12:06:11;37.33;29.00;18.00
73825;PMS5003;64145;55.060;73.168;2023-02-15T12:08:38;29.00;23.50;15.00
73825;PMS5003;64145;55.060;73.168;2023-02-15T12:11:06;25.00;21.00;13.00
73825;PMS5003;64145;55.060;73.168;2023-02-15T12:13:53;23.00;21.00;13.00
73825;PMS5003;64145;55.060;73.168;2023-02-15T12:16:20;27.50;23.25;14.00
73825;PMS5003;64145;55.060;73.168;2023-02-15T12:18:45;24.67;21.00;14.00
73825;PMS5003;64145;55.060;73.168;2023-02-15T12:21:14;21.75;19.00;13.00
73825;PMS5003;64145;55.060;73.168;2023-02-15T12:23:54;24.75;20.00;11.25
73825;PMS5003;64145;55.060;73.168;2023-02-15T12:26:31;23.00;19.00;12.00
73825;PMS5003;64145;55.060;73.168;2023-02-15T12:29:12;24.25;19.25;12.75
73825;PMS5003;64145;55.060;73.168;2023-02-15T12:31:40;23.25;19.25;12.25
73825;PMS5003;64145;55.060;73.168;2023-02-15T12:34:17;27.75;21.50;14.00
73825;PMS5003;64145;55.060;73.168;2023-02-15T12:36:53;31.75;24.75;15.00
73825;PMS5003;64145;55.060;73.168;2023-02-15T12:39:26;32.50;25.25;15.00
73825;PMS5003;64145;55.060;73.168;2023-02-15T12:44:25;32.50;26.00;15.50
73825;PMS5003;64145;55.060;73.168;2023-02-15T12:47:17;32.50;25.50;15.00
73825;PMS5003;64145;55.060;73.168;2023-02-15T12:49:44;34.25;27.25;17.00
73825;PMS5003;64145;55.060;73.168;2023-02-15T12:54:45;34.75;28.00;18.00
73825;PMS5003;64145;55.060;73.168;2023-02-15T12:59:49;32.00;25.00;16.00
73825;PMS5003;64145;55.060;73.168;2023-02-15T13:02:21;29.00;24.00;15.00
73825;PMS5003;64145;55.060;73.168;2023-02-15T13:05:03;24.00;21.00;14.00
73825;PMS5003;64145;55.060;73.168;2023-02-15T13:07:30;24.00;20.75;13.00
73825;PMS5003;64145;55.060;73.168;2023-02-15T13:10:18;27.50;22.00;14.00
73825;PMS5003;64145;55.060;73.168;2023-02-15T13:12:46;25.25;21.00;13.00
73825;PMS5003;64145;55.060;73.168;2023-02-15T13:15:22;25.50;22.00;13.00
73825;PMS5003;64145;55.060;73.168;2023-02-15T13:17:57;26.50;21.75;14.00
73825;PMS5003;64145;55.060;73.168;2023-02-15T13:20:34;27.00;22.00;14.00
73825;PMS5003;64145;55.060;73.168;2023-02-15T13:23:03;30.00;25.25;16.50
73825;PMS5003;64145;55.060;73.168;2023-02-15T13:25:36;31.50;25.50;16.00
73825;PMS5003;64145;55.060;73.168;2023-02-15T13:28:12;31.00;25.00;16.00
73825;PMS5003;64145;55.060;73.168;2023-02-15T13:30:42;29.00;23.00;14.50
73825;PMS5003;64145;55.060;73.168;2023-02-15T13:33:19;31.00;25.00;15.00
73825;PMS5003;64145;55.060;73.168;2023-02-15T13:47:49;34.50;27.75;17.00
73825;PMS5003;64145;55.060;73.168;2023-02-15T13:52:24;31.25;25.00;16.00
73825;PMS5003;64145;55.060;73.168;2023-02-15T13:55:06;33.50;26.50;17.25
73825;PMS5003;64145;55.060;73.168;2023-02-15T14:01:06;34.25;27.75;17.00
73825;PMS5003;64145;55.060;73.168;2023-02-15T14:03:51;32.00;25.00;15.50
73825;PMS5003;64145;55.060;73.168;2023-02-15T14:15:24;26.25;22.00;14.00
73825;PMS5003;64145;55.060;73.168;2023-02-15T14:21:03;25.00;21.00;14.00
73825;PMS5003;64145;55.060;73.168;2023-02-15T14:31:37;24.00;20.25;13.25
73825;PMS5003;64145;55.060;73.168;2023-02-15T14:34:08;26.75;22.00;14.00
73825;PMS5003;64145;55.060;73.168;2023-02-15T14:36:53;28.00;21.00;14.00
73825;PMS5003;64145;55.060;73.168;2023-02-15T14:39:36;26.00;21.00;14.00
73825;PMS5003;64145;55.060;73.168;2023-02-15T14:42:30;26.00;20.50;13.00
73825;PMS5003;64145;55.060;73.168;2023-02-15T14:47:43;21.00;19.00;12.00
73825;PMS5003;64145;55.060;73.168;2023-02-15T14:58:35;19.50;18.00;12.00
73825;PMS5003;64145;55.060;73.168;2023-02-15T15:01:07;19.50;18.00;11.00
73825;PMS5003;64145;55.060;73.168;2023-02-15T15:03:43;22.25;19.50;12.00
73825;PMS5003;64145;55.060;73.168;2023-02-15T15:06:25;28.25;23.25;14.00
73825;PMS5003;64145;55.060;73.168;2023-02-15T15:08:51;29.50;24.00;15.00
73825;PMS5003;64145;55.060;73.168;2023-02-15T15:11:38;32.75;26.25;17.00
73825;PMS5003;64145;55.060;73.168;2023-02-15T15:14:04;35.25;28.50;18.00
73825;PMS5003;64145;55.060;73.168;2023-02-15T15:16:51;35.33;29.00;18.00
73825;PMS5003;64145;55.060;73.168;2023-02-15T15:22:04;38.25;30.50;19.00
73825;PMS5003;64145;55.060;73.168;2023-02-15T15:29:53;31.00;25.00;15.00
73825;PMS5003;64145;55.060;73.168;2023-02-15T15:32:19;30.67;24.67;15.33
73825;PMS5003;64145;55.060;73.168;2023-02-15T15:35:05;26.50;22.00;14.00
73825;PMS5003;64145;55.060;73.168;2023-02-15T15:45:57;21.25;19.25;12.00
73825;PMS5003;64145;55.060;73.168;2023-02-15T15:48:38;21.00;18.75;11.00
73825;PMS5003;64145;55.060;73.168;2023-02-15T15:51:09;21.00;19.00;12.00
73825;PMS5003;64145;55.060;73.168;2023-02-15T15:53:42;26.75;21.25;13.25
73825;PMS5003;64145;55.060;73.168;2023-02-15T15:56:12;28.50;22.00;14.00
73825;PMS5003;64145;55.060;73.168;2023-02-15T15:58:50;26.25;22.00;14.00
73825;PMS5003;64145;55.060;73.168;2023-02-15T16:01:21;24.00;20.00;12.00
73825;PMS5003;64145;55.060;73.168;2023-02-15T16:03:50;19.00;19.00;12.00
73825;PMS5003;64145;55.060;73.168;2023-02-15T16:06:27;19.25;19.00;12.00
73825;PMS5003;64145;55.060;73.168;2023-02-15T16:08:52;21.00;19.00;12.00
73825;PMS5003;64145;55.060;73.168;2023-02-15T16:11:22;17.50;17.00;10.00
73825;PMS5003;64145;55.060;73.168;2023-02-15T16:13:48;17.00;16.00;9.25
73825;PMS5003;64145;55.060;73.168;2023-02-15T16:16:19;15.00;13.50;7.75
73825;PMS5003;64145;55.060;73.168;2023-02-15T16:18:46;15.00;14.75;8.00
73825;PMS5003;64145;55.060;73.168;2023-02-15T16:21:22;15.25;15.00;7.75
73825;PMS5003;64145;55.060;73.168;2023-02-15T16:24:05;16.75;15.00;8.00
73825;PMS5003;64145;55.060;73.168;2023-02-15T16:26:58;20.25;18.25;12.00
73825;PMS5003;64145;55.060;73.168;2023-02-15T16:29:28;20.50;17.25;12.00
73825;PMS5003;64145;55.060;73.168;2023-02-15T16:32:01;25.25;21.75;13.50
73825;PMS5003;64145;55.060;73.168;2023-02-15T16:34:27;23.00;19.75;13.25
73825;PMS5003;64145;55.060;73.168;2023-02-15T16:37:12;22.00;18.50;12.00
73825;PMS5003;64145;55.060;73.168;2023-02-15T16:39:44;20.00;18.25;11.00
73825;PMS5003;64145;55.060;73.168;2023-02-15T16:42:11;18.25;17.00;10.00
73825;PMS5003;64145;55.060;73.168;2023-02-15T16:44:37;16.25;15.00;8.00
73825;PMS5003;64145;55.060;73.168;2023-02-15T16:47:03;18.00;15.00;9.75
73825;PMS5003;64145;55.060;73.168;2023-02-15T16:49:37;17.25;16.75;11.25
73825;PMS5003;64145;55.060;73.168;2023-02-15T16:52:21;18.75;18.25;11.00
73825;PMS5003;64145;55.060;73.168;2023-02-15T16:54:49;22.25;18.50;12.00